Time;durP1;ratioP1;P1;durP2;ratioP2;P2;SDS_P1;SDS_P2;PMS_P1;PMS_P2;Temp;Humidity;BMP_temperature;BMP_pressure;BME280_temperature;BME280_humidity;BME280_pressure;Samples;Min_cycle;Max_cycle;Signal;HPM_P1;HPM_P2
2023/04/30 00:00:35;;;;;;;5.45;4.47;;;;;;;;;;5091154;28;20073;-63
2023/04/30 00:03:00;;;;;;;7.30;4.90;;;;;;;;;;5093107;28;20032;-66
2023/04/30 00:05:26;;;;;;;7.55;5.05;;;;;;;;;;5089754;28;20349;-66
2023/04/30 00:07:51;;;;;;;7.13;4.82;;;;;;;;;;5072405;28;20024;-65
2023/04/30 00:10:17;;;;;;;6.55;4.50;;;;;;;;;;5072529;28;20029;-63
2023/04/30 00:12:42;;;;;;;7.55;4.82;;;;;;;;;;5072662;28;20024;-63
2023/04/30 00:15:08;;;;;;;7.20;5.00;;;;;;;;;;5078014;28;20518;-65
2023/04/30 00:17:34;;;;;;;6.90;4.80;;;;;;;;;;5092886;28;20032;-64
2023/04/30 00:20:00;;;;;;;5.60;4.72;;;;;;;;;;5092707;28;20028;-66
2023/04/30 00:22:25;;;;;;;7.55;4.95;;;;;;;;;;5092530;28;20028;-66
2023/04/30 00:24:51;;;;;;;6.80;4.85;;;;;;;;;;5092628;28;20020;-66
2023/04/30 00:27:16;;;;;;;7.70;4.72;;;;;;;;;;5092525;28;20150;-63
2023/04/30 00:29:42;;;;;;;6.82;4.60;;;;;;;;;;5092562;28;20027;-63
2023/04/30 00:32:07;;;;;;;6.97;4.93;;;;;;;;;;5092476;28;20099;-64
2023/04/30 00:34:33;;;;;;;7.07;5.00;;;;;;;;;;5092540;28;20032;-66
2023/04/30 00:36:58;;;;;;;13.85;5.00;;;;;;;;;;5092087;28;20051;-64
2023/04/30 00:39:24;;;;;;;5.88;4.85;;;;;;;;;;5092488;28;20028;-64
2023/04/30 00:41:49;;;;;;;6.47;4.72;;;;;;;;;;5092952;28;20028;-63
2023/04/30 00:44:15;;;;;;;6.78;4.60;;;;;;;;;;5092408;28;20024;-63
2023/04/30 00:46:41;;;;;;;5.20;4.70;;;;;;;;;;5092686;28;20024;-66
2023/04/30 00:49:07;;;;;;;7.32;5.22;;;;;;;;;;5092413;28;20024;-64
2023/04/30 00:51:34;;;;;;;6.50;4.93;;;;;;;;;;5092370;28;20021;-64
2023/04/30 00:54:04;;;;;;;5.90;4.82;;;;;;;;;;5092444;28;20028;-65
2023/04/30 00:56:30;;;;;;;;;;;;;;;;;;5092710;28;20035;-65
2023/04/30 00:58:56;;;;;;;7.05;4.50;;;;;;;;;;5095402;28;19912;-65
2023/04/30 01:01:27;;;;;;;7.75;4.57;;;;;;;;;;5096241;28;20103;-64
2023/04/30 01:03:53;;;;;;;5.75;5.15;;;;;;;;;;5096292;28;20482;-63
2023/04/30 01:06:19;;;;;;;6.25;4.63;;;;;;;;;;5096239;28;20024;-64
2023/04/30 01:08:45;;;;;;;7.93;5.03;;;;;;;;;;5096144;28;20471;-64
2023/04/30 01:11:43;;;;;;;7.78;5.05;;;;;;;;;;5095999;28;20032;-67
2023/04/30 01:14:09;;;;;;;6.55;5.18;;;;;;;;;;5095287;28;20032;-63
2023/04/30 01:16:42;;;;;;;7.43;5.22;;;;;;;;;;5096207;28;20382;-64
2023/04/30 01:19:30;;;;;;;6.35;5.05;;;;;;;;;;5096038;28;20020;-64
2023/04/30 01:22:00;;;;;;;8.23;5.28;;;;;;;;;;5096009;28;20016;-64
2023/04/30 01:24:54;;;;;;;6.78;5.82;;;;;;;;;;5095952;28;20024;-64
2023/04/30 01:27:38;;;;;;;5.53;4.70;;;;;;;;;;5096152;28;20422;-67
2023/04/30 01:30:04;;;;;;;9.80;5.47;;;;;;;;;;5095803;28;20032;-64
2023/04/30 01:32:30;;;;;;;5.55;4.95;;;;;;;;;;5095978;28;20421;-64
2023/04/30 01:34:56;;;;;;;6.15;5.00;;;;;;;;;;5095723;28;20020;-65
2023/04/30 01:37:36;;;;;;;8.02;5.38;;;;;;;;;;5095497;28;20047;-67
2023/04/30 01:40:17;;;;;;;7.03;5.10;;;;;;;;;;5095165;28;20479;-65
2023/04/30 01:43:04;;;;;;;6.95;5.35;;;;;;;;;;5090968;28;20387;-66
2023/04/30 01:45:54;;;;;;;6.50;5.15;;;;;;;;;;5093956;28;20024;-63
2023/04/30 01:48:39;;;;;;;9.75;5.07;;;;;;;;;;5093385;28;20577;-63
2023/04/30 01:51:18;;;;;;;6.30;4.90;;;;;;;;;;5092201;28;20491;-67
2023/04/30 01:53:45;;;;;;;7.82;5.10;;;;;;;;;;5092441;28;20020;-66
2023/04/30 01:56:17;;;;;;;8.80;5.05;;;;;;;;;;5095318;28;20055;-65
2023/04/30 01:58:45;;;;;;;6.18;5.13;;;;;;;;;;5095613;28;20016;-65
2023/04/30 02:01:28;;;;;;;6.38;4.82;;;;;;;;;;5095234;28;20032;-66
2023/04/30 02:03:53;;;;;;;9.85;5.22;;;;;;;;;;5093877;28;20023;-65
2023/04/30 02:06:19;;;;;;;9.40;5.80;;;;;;;;;;5095127;28;20024;-66
2023/04/30 02:08:44;;;;;;;9.20;5.47;;;;;;;;;;5094112;28;20065;-64
2023/04/30 02:11:10;;;;;;;7.03;5.28;;;;;;;;;;5095089;28;20449;-66
2023/04/30 02:13:35;;;;;;;9.80;5.38;;;;;;;;;;5095295;28;20028;-64
2023/04/30 02:16:01;;;;;;;6.40;5.35;;;;;;;;;;5094888;28;20029;-65
2023/04/30 02:18:26;;;;;;;7.13;5.35;;;;;;;;;;5095213;28;20032;-65
2023/04/30 02:20:52;;;;;;;7.28;5.43;;;;;;;;;;5094889;28;20530;-65
2023/04/30 02:23:18;;;;;;;6.65;5.05;;;;;;;;;;5095090;28;20073;-65
2023/04/30 02:25:43;;;;;;;8.02;5.80;;;;;;;;;;5094766;28;20028;-65
2023/04/30 02:28:09;;;;;;;8.02;5.60;;;;;;;;;;5094746;28;20206;-66
2023/04/30 02:30:34;;;;;;;6.32;5.10;;;;;;;;;;5094931;28;20105;-65
2023/04/30 02:33:01;;;;;;;10.00;5.72;;;;;;;;;;5094615;28;20467;-65
2023/04/30 02:35:26;;;;;;;6.28;5.05;;;;;;;;;;5094575;28;20024;-67
2023/04/30 02:37:52;;;;;;;6.80;5.38;;;;;;;;;;5094434;28;20388;-66
2023/04/30 02:40:17;;;;;;;6.65;5.45;;;;;;;;;;5094517;28;20077;-66
2023/04/30 02:42:43;;;;;;;7.22;4.97;;;;;;;;;;5093179;28;20028;-65
2023/04/30 02:45:09;;;;;;;7.18;4.80;;;;;;;;;;5094336;28;20480;-66
2023/04/30 02:47:35;;;;;;;6.50;5.07;;;;;;;;;;5094563;28;20038;-65
2023/04/30 02:50:00;;;;;;;6.68;5.57;;;;;;;;;;5094584;28;20467;-66
2023/04/30 02:52:25;;;;;;;6.88;5.28;;;;;;;;;;5094168;28;20020;-65
2023/04/30 02:54:51;;;;;;;5.93;4.63;;;;;;;;;;5094262;28;20020;-66
2023/04/30 02:57:16;;;;;;;5.93;5.25;;;;;;;;;;5094394;28;20028;-66
2023/04/30 02:59:44;;;;;;;6.45;4.90;;;;;;;;;;5094077;28;20460;-64
2023/04/30 03:02:11;;;;;;;8.45;4.82;;;;;;;;;;5094329;28;20020;-66
2023/04/30 03:04:36;;;;;;;6.10;5.10;;;;;;;;;;5094109;28;20027;-67
2023/04/30 03:07:02;;;;;;;5.40;4.90;;;;;;;;;;5094016;28;20032;-66
2023/04/30 03:09:30;;;;;;;7.88;5.00;;;;;;;;;;5094256;28;20081;-65
2023/04/30 03:11:55;;;;;;;8.00;5.43;;;;;;;;;;5093829;28;20024;-65
2023/04/30 03:14:21;;;;;;;6.63;5.20;;;;;;;;;;5093905;28;20028;-65
2023/04/30 03:16:46;;;;;;;6.30;5.22;;;;;;;;;;5093725;28;20077;-66
2023/04/30 03:19:12;;;;;;;7.28;5.15;;;;;;;;;;5093769;28;20031;-65
2023/04/30 03:21:37;;;;;;;7.30;6.05;;;;;;;;;;5092854;28;20024;-66
2023/04/30 03:24:03;;;;;;;7.63;5.18;;;;;;;;;;5093968;28;20537;-64
2023/04/30 03:26:29;;;;;;;8.70;5.22;;;;;;;;;;5093821;28;20380;-66
2023/04/30 03:28:54;;;;;;;8.05;5.22;;;;;;;;;;5093618;28;20024;-64
2023/04/30 03:31:20;;;;;;;8.25;4.93;;;;;;;;;;5093492;28;20028;-65
2023/04/30 03:33:45;;;;;;;8.65;5.35;;;;;;;;;;5093893;28;20024;-65
2023/04/30 03:36:11;;;;;;;8.43;5.03;;;;;;;;;;5093155;28;20048;-65
2023/04/30 03:38:37;;;;;;;5.38;4.88;;;;;;;;;;5093414;28;20061;-66
2023/04/30 03:41:03;;;;;;;5.68;5.00;;;;;;;;;;5093586;28;20067;-66
2023/04/30 03:43:28;;;;;;;5.53;4.97;;;;;;;;;;5093397;28;20024;-65
2023/04/30 03:45:54;;;;;;;9.15;5.63;;;;;;;;;;5093493;28;20364;-66
2023/04/30 03:48:20;;;;;;;6.38;5.53;;;;;;;;;;5093548;28;20384;-65
2023/04/30 03:50:45;;;;;;;5.88;4.97;;;;;;;;;;5093119;28;20611;-65
2023/04/30 03:53:11;;;;;;;8.55;6.13;;;;;;;;;;5093502;28;20016;-65
2023/04/30 03:55:36;;;;;;;8.90;5.40;;;;;;;;;;5092945;28;20066;-65
2023/04/30 03:58:02;;;;;;;5.82;5.18;;;;;;;;;;5093323;28;20034;-65
2023/04/30 04:00:28;;;;;;;6.88;5.03;;;;;;;;;;5093224;28;20387;-65
2023/04/30 04:02:54;;;;;;;7.35;5.18;;;;;;;;;;5092940;28;20384;-64
2023/04/30 04:05:20;;;;;;;5.35;4.85;;;;;;;;;;5092818;28;20031;-65
2023/04/30 04:07:45;;;;;;;6.50;5.07;;;;;;;;;;5092810;28;20024;-64
2023/04/30 04:10:11;;;;;;;6.72;5.03;;;;;;;;;;5092776;28;20031;-65
2023/04/30 04:12:36;;;;;;;6.50;5.00;;;;;;;;;;5092800;28;20096;-65
2023/04/30 04:15:02;;;;;;;6.40;4.93;;;;;;;;;;5092679;28;20024;-65
2023/04/30 04:17:27;;;;;;;5.55;4.95;;;;;;;;;;5092759;28;20081;-65
2023/04/30 04:19:53;;;;;;;8.07;4.97;;;;;;;;;;5092970;28;20050;-66
2023/04/30 04:22:18;;;;;;;6.35;5.15;;;;;;;;;;5092685;28;20027;-66
2023/04/30 04:24:44;;;;;;;7.05;5.00;;;;;;;;;;5092912;28;20039;-65
2023/04/30 04:27:10;;;;;;;5.72;5.00;;;;;;;;;;5092977;28;20055;-65
2023/04/30 04:29:35;;;;;;;5.88;4.97;;;;;;;;;;5092525;28;20039;-65
2023/04/30 04:32:03;;;;;;;6.82;5.30;;;;;;;;;;5092685;28;20028;-66
2023/04/30 04:34:28;;;;;;;7.68;4.85;;;;;;;;;;5092490;28;20472;-66
2023/04/30 04:36:54;;;;;;;7.72;5.50;;;;;;;;;;5092178;28;20052;-65
2023/04/30 04:39:19;;;;;;;6.35;5.25;;;;;;;;;;5092520;28;20031;-66
2023/04/30 04:41:45;;;;;;;7.18;5.40;;;;;;;;;;5092480;28;20091;-66
2023/04/30 04:44:11;;;;;;;6.20;5.05;;;;;;;;;;5092437;28;20028;-66
2023/04/30 04:46:41;;;;;;;6.78;5.30;;;;;;;;;;5092715;28;20027;-65
2023/04/30 04:49:06;;;;;;;6.43;5.30;;;;;;;;;;5092665;28;20110;-65
2023/04/30 04:51:32;;;;;;;6.47;5.53;;;;;;;;;;5092733;28;20491;-66
2023/04/30 04:53:58;;;;;;;7.75;5.28;;;;;;;;;;5092395;28;20032;-66
2023/04/30 04:56:23;;;;;;;8.50;5.03;;;;;;;;;;5092552;28;20028;-66
2023/04/30 04:58:49;;;;;;;6.75;5.40;;;;;;;;;;5092345;28;20390;-65
2023/04/30 05:01:14;;;;;;;7.50;5.90;;;;;;;;;;5092310;28;20059;-65
2023/04/30 05:03:40;;;;;;;6.18;5.03;;;;;;;;;;5092291;28;20024;-66
2023/04/30 05:06:06;;;;;;;6.78;5.38;;;;;;;;;;5092353;28;20020;-65
2023/04/30 05:08:31;;;;;;;7.20;5.80;;;;;;;;;;5092555;28;20039;-66
2023/04/30 05:10:57;;;;;;;6.10;5.20;;;;;;;;;;5092358;28;20472;-66
2023/04/30 05:13:22;;;;;;;7.55;5.22;;;;;;;;;;5092214;28;20024;-66
2023/04/30 05:15:50;;;;;;;7.10;5.80;;;;;;;;;;5092197;28;20034;-66
2023/04/30 05:18:16;;;;;;;6.47;5.25;;;;;;;;;;5092070;28;20037;-67
2023/04/30 05:20:41;;;;;;;6.35;5.40;;;;;;;;;;5092172;28;20032;-66
2023/04/30 05:23:07;;;;;;;7.45;5.88;;;;;;;;;;5092048;28;20042;-65
2023/04/30 05:25:32;;;;;;;6.20;5.28;;;;;;;;;;5092088;28;20024;-66
2023/04/30 05:27:58;;;;;;;5.75;4.82;;;;;;;;;;5092041;28;20030;-66
2023/04/30 05:30:23;;;;;;;6.03;5.35;;;;;;;;;;5092051;28;20095;-66
2023/04/30 05:32:51;;;;;;;9.50;5.20;;;;;;;;;;5091971;28;20028;-65
2023/04/30 05:35:17;;;;;;;6.25;5.35;;;;;;;;;;5091761;28;20059;-65
2023/04/30 05:37:43;;;;;;;7.90;5.70;;;;;;;;;;5091698;28;20552;-65
2023/04/30 05:40:09;;;;;;;9.23;5.75;;;;;;;;;;5091894;28;20036;-66
2023/04/30 05:42:35;;;;;;;6.07;5.35;;;;;;;;;;5092168;28;20149;-65
2023/04/30 05:45:01;;;;;;;6.55;5.15;;;;;;;;;;5094807;28;20031;-65
2023/04/30 05:47:27;;;;;;;7.25;5.78;;;;;;;;;;5095819;28;20086;-65
2023/04/30 05:49:52;;;;;;;6.97;5.60;;;;;;;;;;5095839;28;20479;-65
2023/04/30 05:52:18;;;;;;;6.38;5.35;;;;;;;;;;5095422;28;20361;-65
2023/04/30 05:54:44;;;;;;;8.35;5.97;;;;;;;;;;5095398;28;20032;-65
2023/04/30 05:57:09;;;;;;;6.10;5.07;;;;;;;;;;5095260;28;20039;-65
2023/04/30 05:59:35;;;;;;;6.55;4.97;;;;;;;;;;5095353;28;20036;-65
2023/04/30 06:02:00;;;;;;;9.30;5.75;;;;;;;;;;5095366;28;20110;-65
2023/04/30 06:04:26;;;;;;;7.45;5.70;;;;;;;;;;5095251;28;20028;-64
2023/04/30 06:06:52;;;;;;;7.28;5.45;;;;;;;;;;5095165;28;20024;-64
2023/04/30 06:09:17;;;;;;;6.93;5.38;;;;;;;;;;5095450;28;20081;-65
2023/04/30 06:11:47;;;;;;;6.57;5.70;;;;;;;;;;5095350;28;20491;-65
2023/04/30 06:14:13;;;;;;;;;;;;;;;;;;5095502;28;20494;-65
2023/04/30 06:16:38;;;;;;;7.35;5.43;;;;;;;;;;5094887;28;19962;-65
2023/04/30 06:19:04;;;;;;;8.50;5.68;;;;;;;;;;5095030;28;20111;-66
2023/04/30 06:21:30;;;;;;;6.22;5.20;;;;;;;;;;5094893;28;20026;-65
2023/04/30 06:23:56;;;;;;;6.85;6.13;;;;;;;;;;5094887;28;20028;-66
2023/04/30 06:26:21;;;;;;;5.85;5.10;;;;;;;;;;5094780;28;20082;-65
2023/04/30 06:28:47;;;;;;;6.32;5.40;;;;;;;;;;5094841;28;20081;-65
2023/04/30 06:31:13;;;;;;;7.13;5.28;;;;;;;;;;5094925;28;20020;-64
2023/04/30 06:33:38;;;;;;;8.00;5.55;;;;;;;;;;5093459;28;20480;-65
2023/04/30 06:36:04;;;;;;;6.50;5.22;;;;;;;;;;5094304;28;20040;-65
2023/04/30 06:38:30;;;;;;;7.63;5.40;;;;;;;;;;5094875;28;20028;-65
2023/04/30 06:40:55;;;;;;;6.68;5.65;;;;;;;;;;5094472;28;20511;-64
2023/04/30 06:43:21;;;;;;;7.90;5.82;;;;;;;;;;5094809;28;20035;-65
2023/04/30 06:45:46;;;;;;;6.63;5.47;;;;;;;;;;5094723;28;20035;-64
2023/04/30 06:48:12;;;;;;;6.78;5.57;;;;;;;;;;5094675;28;20424;-65
2023/04/30 06:50:43;;;;;;;7.32;5.65;;;;;;;;;;5094354;28;20031;-65
2023/04/30 06:53:10;;;;;;;6.75;6.05;;;;;;;;;;5094641;28;20047;-65
2023/04/30 06:55:36;;;;;;;6.22;5.45;;;;;;;;;;5094211;28;20028;-65
2023/04/30 06:58:02;;;;;;;7.45;5.75;;;;;;;;;;5094469;28;20039;-65
2023/04/30 07:00:27;;;;;;;6.53;5.70;;;;;;;;;;5094215;28;20024;-65
2023/04/30 07:02:53;;;;;;;6.45;5.50;;;;;;;;;;5093095;28;20066;-64
2023/04/30 07:05:18;;;;;;;7.13;5.70;;;;;;;;;;5094274;28;20032;-65
2023/04/30 07:07:47;;;;;;;6.22;5.63;;;;;;;;;;5092793;28;20034;-64
2023/04/30 07:10:13;;;;;;;6.75;5.65;;;;;;;;;;5094233;28;20372;-65
2023/04/30 07:12:38;;;;;;;7.88;5.55;;;;;;;;;;5094180;28;20032;-64
2023/04/30 07:15:04;;;;;;;4.93;4.43;;;;;;;;;;5093877;28;20449;-64
2023/04/30 07:17:30;;;;;;;6.47;5.35;;;;;;;;;;5094009;28;20036;-64
2023/04/30 07:19:55;;;;;;;5.68;4.93;;;;;;;;;;5093737;28;20031;-64
2023/04/30 07:22:21;;;;;;;6.78;5.50;;;;;;;;;;5094044;28;20023;-64
2023/04/30 07:24:46;;;;;;;6.72;5.55;;;;;;;;;;5092372;28;20499;-65
2023/04/30 07:27:12;;;;;;;5.63;5.07;;;;;;;;;;5093375;28;20028;-64
2023/04/30 07:29:37;;;;;;;5.93;4.95;;;;;;;;;;5093438;28;20024;-64
2023/04/30 07:32:03;;;;;;;5.43;4.65;;;;;;;;;;5093743;28;20034;-64
2023/04/30 07:34:29;;;;;;;6.25;5.25;;;;;;;;;;5093629;28;20425;-64
2023/04/30 07:36:54;;;;;;;8.02;5.90;;;;;;;;;;5092639;28;20040;-64
2023/04/30 07:39:20;;;;;;;6.68;5.28;;;;;;;;;;5092737;28;20032;-66
2023/04/30 07:41:45;;;;;;;5.53;5.00;;;;;;;;;;5092818;28;20031;-65
2023/04/30 07:44:11;;;;;;;6.03;5.18;;;;;;;;;;5093509;28;20081;-65
2023/04/30 07:46:37;;;;;;;6.72;5.13;;;;;;;;;;5093178;28;20047;-64
2023/04/30 07:49:03;;;;;;;5.68;4.63;;;;;;;;;;5093160;28;20069;-64
2023/04/30 07:51:28;;;;;;;6.45;4.50;;;;;;;;;;5092928;28;20024;-64
2023/04/30 07:53:54;;;;;;;6.30;5.13;;;;;;;;;;5092785;28;20024;-65
2023/04/30 07:56:20;;;;;;;6.03;5.00;;;;;;;;;;5092784;28;20479;-65
2023/04/30 07:58:46;;;;;;;5.05;4.55;;;;;;;;;;5092544;28;20017;-64
2023/04/30 08:01:11;;;;;;;5.78;5.18;;;;;;;;;;5092809;28;20065;-64
2023/04/30 08:03:37;;;;;;;5.22;4.57;;;;;;;;;;5092783;28;20067;-65
2023/04/30 08:06:04;;;;;;;5.90;5.15;;;;;;;;;;5091984;28;20479;-64
2023/04/30 08:08:30;;;;;;;5.20;4.60;;;;;;;;;;5092220;28;20028;-64
2023/04/30 08:10:55;;;;;;;6.30;4.43;;;;;;;;;;5092673;28;20027;-63
2023/04/30 08:13:21;;;;;;;5.40;4.72;;;;;;;;;;5093133;28;20024;-65
2023/04/30 08:15:46;;;;;;;5.68;4.75;;;;;;;;;;5092748;28;20034;-64
2023/04/30 08:18:12;;;;;;;5.18;4.15;;;;;;;;;;5092773;28;20107;-64
2023/04/30 08:20:38;;;;;;;4.43;4.03;;;;;;;;;;5092739;28;20464;-65
2023/04/30 08:23:03;;;;;;;6.35;4.53;;;;;;;;;;5092704;28;20093;-64
2023/04/30 08:25:30;;;;;;;4.82;4.15;;;;;;;;;;5092626;28;20020;-65
2023/04/30 08:27:56;;;;;;;5.35;4.78;;;;;;;;;;5091381;28;20028;-65
2023/04/30 08:30:21;;;;;;;5.30;4.40;;;;;;;;;;5092628;28;20430;-65
2023/04/30 08:32:47;;;;;;;5.25;4.55;;;;;;;;;;5092582;28;20032;-64
2023/04/30 08:35:13;;;;;;;7.53;4.40;;;;;;;;;;5092568;28;20020;-64
2023/04/30 08:37:38;;;;;;;5.03;4.50;;;;;;;;;;5092333;28;20072;-64
2023/04/30 08:40:08;;;;;;;4.50;4.07;;;;;;;;;;5092446;28;20081;-64
2023/04/30 08:42:36;;;;;;;4.90;4.33;;;;;;;;;;5092571;28;20028;-64
2023/04/30 08:45:02;;;;;;;5.03;4.53;;;;;;;;;;5092309;28;20156;-64
2023/04/30 08:47:28;;;;;;;5.03;4.63;;;;;;;;;;5092465;28;20035;-65
2023/04/30 08:49:54;;;;;;;4.60;4.10;;;;;;;;;;5092303;28;20024;-64
2023/04/30 08:52:21;;;;;;;4.65;4.25;;;;;;;;;;5091165;28;20031;-64
2023/04/30 08:54:47;;;;;;;5.47;4.40;;;;;;;;;;5092396;28;20024;-64
2023/04/30 08:57:13;;;;;;;5.50;4.43;;;;;;;;;;5092237;28;20028;-64
2023/04/30 08:59:38;;;;;;;4.70;4.25;;;;;;;;;;5092228;28;20024;-64
2023/04/30 09:02:04;;;;;;;4.95;4.55;;;;;;;;;;5092671;28;20056;-64
2023/04/30 09:04:30;;;;;;;4.70;4.28;;;;;;;;;;5092539;28;20032;-64
2023/04/30 09:06:59;;;;;;;5.07;4.10;;;;;;;;;;5092279;28;20495;-64
2023/04/30 09:09:29;;;;;;;5.20;4.70;;;;;;;;;;5092198;28;20024;-65
2023/04/30 09:12:17;;;;;;;4.53;3.97;;;;;;;;;;5092303;28;20024;-65
2023/04/30 09:14:58;;;;;;;4.55;4.15;;;;;;;;;;5092235;28;20089;-65
2023/04/30 09:17:24;;;;;;;4.97;4.20;;;;;;;;;;5092121;28;20039;-65
2023/04/30 09:19:51;;;;;;;4.97;4.57;;;;;;;;;;5094951;28;20434;-64
2023/04/30 09:22:21;;;;;;;4.55;4.00;;;;;;;;;;5096519;28;20380;-65
2023/04/30 09:24:48;;;;;;;3.80;3.50;;;;;;;;;;5095995;28;20024;-66
2023/04/30 09:27:18;;;;;;;4.35;3.95;;;;;;;;;;5095982;28;20038;-65
2023/04/30 09:29:45;;;;;;;4.72;4.22;;;;;;;;;;5091444;28;20353;-65
2023/04/30 09:32:10;;;;;;;4.30;3.90;;;;;;;;;;5091210;28;20058;-65
2023/04/30 09:34:36;;;;;;;4.93;4.43;;;;;;;;;;5092311;28;20156;-64
2023/04/30 09:37:03;;;;;;;4.35;3.88;;;;;;;;;;5089886;28;20123;-64
2023/04/30 09:39:29;;;;;;;5.00;4.47;;;;;;;;;;5090157;28;20039;-66
2023/04/30 09:42:15;;;;;;;4.60;3.80;;;;;;;;;;5092583;28;20480;-65
2023/04/30 09:44:42;;;;;;;4.88;4.38;;;;;;;;;;5092719;28;20040;-66
2023/04/30 09:47:16;;;;;;;5.00;3.95;;;;;;;;;;5094382;28;20044;-65
2023/04/30 09:49:50;;;;;;;4.38;3.70;;;;;;;;;;5092956;28;20024;-65
2023/04/30 09:52:17;;;;;;;4.13;3.72;;;;;;;;;;5093514;28;20012;-65
2023/04/30 09:54:44;;;;;;;4.35;3.90;;;;;;;;;;5092969;28;20024;-65
2023/04/30 09:57:11;;;;;;;4.05;3.65;;;;;;;;;;5093809;28;20024;-66
2023/04/30 09:59:38;;;;;;;3.70;3.40;;;;;;;;;;5094135;28;20121;-64
2023/04/30 10:02:07;;;;;;;4.15;3.75;;;;;;;;;;5092261;28;20032;-65
2023/04/30 10:04:38;;;;;;;4.63;3.90;;;;;;;;;;5093378;28;20027;-66
2023/04/30 10:07:14;;;;;;;5.68;3.83;;;;;;;;;;5092887;28;20111;-65
2023/04/30 10:09:47;;;;;;;3.80;3.50;;;;;;;;;;5093470;28;20425;-65
2023/04/30 10:12:21;;;;;;;4.38;3.95;;;;;;;;;;5092472;28;20089;-66
2023/04/30 10:15:10;;;;;;;3.85;3.55;;;;;;;;;;5092676;28;20446;-65
2023/04/30 10:17:43;;;;;;;4.10;3.70;;;;;;;;;;5091191;28;20028;-67
2023/04/30 10:20:10;;;;;;;5.13;4.30;;;;;;;;;;5085261;28;20027;-67
2023/04/30 10:22:35;;;;;;;4.25;3.85;;;;;;;;;;5091982;28;20069;-67
2023/04/30 10:25:02;;;;;;;4.22;3.83;;;;;;;;;;5093297;28;20090;-66
2023/04/30 10:27:32;;;;;;;4.22;3.78;;;;;;;;;;5092937;28;20472;-64
2023/04/30 10:29:58;;;;;;;4.00;3.60;;;;;;;;;;5093020;28;20028;-65
2023/04/30 10:32:31;;;;;;;4.40;4.00;;;;;;;;;;5081647;28;20110;-64
2023/04/30 10:35:05;;;;;;;4.47;4.07;;;;;;;;;;5090542;28;20032;-66
2023/04/30 10:37:56;;;;;;;8.70;4.15;;;;;;;;;;5092799;28;20044;-67
2023/04/30 10:40:25;;;;;;;4.53;3.67;;;;;;;;;;5091476;28;20025;-65
2023/04/30 10:42:53;;;;;;;4.55;3.80;;;;;;;;;;5092866;28;20387;-66
2023/04/30 10:45:33;;;;;;;6.93;3.75;;;;;;;;;;5092804;28;20028;-65
2023/04/30 10:48:02;;;;;;;5.85;3.88;;;;;;;;;;5092642;28;20028;-65
2023/04/30 10:50:29;;;;;;;4.38;3.97;;;;;;;;;;5091351;28;20043;-65
2023/04/30 10:53:05;;;;;;;4.72;3.70;;;;;;;;;;5092782;28;20047;-67
2023/04/30 10:55:31;;;;;;;3.90;3.55;;;;;;;;;;5092964;28;20036;-66
2023/04/30 10:57:58;;;;;;;4.30;3.88;;;;;;;;;;5092167;28;20425;-66
2023/04/30 11:00:26;;;;;;;4.10;3.70;;;;;;;;;;5092517;28;20020;-65
2023/04/30 11:02:56;;;;;;;3.83;3.53;;;;;;;;;;5092495;28;20023;-66
2023/04/30 11:05:36;;;;;;;3.90;3.60;;;;;;;;;;5092507;28;20024;-67
2023/04/30 11:08:03;;;;;;;4.28;3.88;;;;;;;;;;5093756;28;20118;-68
2023/04/30 11:10:32;;;;;;;3.92;3.53;;;;;;;;;;5094061;28;20483;-66
2023/04/30 11:13:03;;;;;;;4.20;3.80;;;;;;;;;;5094170;28;20028;-67
2023/04/30 11:15:44;;;;;;;5.40;3.97;;;;;;;;;;5093690;28;20421;-67
2023/04/30 11:18:12;;;;;;;3.83;3.53;;;;;;;;;;5090613;28;20107;-67
2023/04/30 11:20:47;;;;;;;3.85;3.50;;;;;;;;;;5093745;28;20020;-66
2023/04/30 11:23:21;;;;;;;3.75;3.45;;;;;;;;;;5093590;28;20070;-67
2023/04/30 11:25:48;;;;;;;3.53;3.20;;;;;;;;;;5093250;28;20031;-67
2023/04/30 11:28:22;;;;;;;3.70;3.40;;;;;;;;;;5093377;28;20556;-66
2023/04/30 11:30:55;;;;;;;3.58;3.30;;;;;;;;;;5093556;28;20031;-65
2023/04/30 11:33:22;;;;;;;4.70;3.38;;;;;;;;;;5093078;28;20432;-68
2023/04/30 11:35:51;;;;;;;4.70;3.30;;;;;;;;;;5092936;28;20020;-68
2023/04/30 11:38:34;;;;;;;6.20;3.45;;;;;;;;;;5093294;28;20024;-68
2023/04/30 11:41:01;;;;;;;3.95;3.58;;;;;;;;;;5093093;28;20081;-67
2023/04/30 11:43:29;;;;;;;4.30;3.90;;;;;;;;;;5093425;28;20020;-67
2023/04/30 11:46:18;;;;;;;3.70;3.40;;;;;;;;;;5093629;28;20051;-68
2023/04/30 11:48:45;;;;;;;4.20;3.63;;;;;;;;;;5093183;28;20030;-67
2023/04/30 11:51:20;;;;;;;4.25;3.50;;;;;;;;;;5093454;28;20036;-66
2023/04/30 11:53:47;;;;;;;4.18;3.75;;;;;;;;;;5093488;28;20039;-66
2023/04/30 11:56:16;;;;;;;3.88;3.55;;;;;;;;;;5093124;28;20043;-65
2023/04/30 11:58:42;;;;;;;4.00;3.60;;;;;;;;;;5093242;28;20467;-67
2023/04/30 12:01:09;;;;;;;3.85;3.50;;;;;;;;;;5092924;28;20039;-68
2023/04/30 12:03:46;;;;;;;3.83;3.53;;;;;;;;;;5092552;28;20028;-67
2023/04/30 12:06:26;;;;;;;3.70;3.40;;;;;;;;;;5092072;28;20051;-67
2023/04/30 12:08:55;;;;;;;;;;;;;;;;;;5091337;28;20089;-68
2023/04/30 12:11:24;;;;;;;4.20;3.58;;;;;;;;;;5089050;28;19927;-67
2023/04/30 12:13:54;;;;;;;5.75;3.40;;;;;;;;;;5091385;28;20468;-67
2023/04/30 12:16:19;;;;;;;;;;;;;;;;;;5089706;28;20421;-67
2023/04/30 12:18:46;;;;;;;3.72;3.42;;;;;;;;;;5091209;28;19912;-67
2023/04/30 12:21:12;;;;;;;3.63;3.33;;;;;;;;;;5091639;28;20028;-67
2023/04/30 12:23:38;;;;;;;4.22;3.70;;;;;;;;;;5088990;28;20384;-67
2023/04/30 12:26:04;;;;;;;3.72;3.42;;;;;;;;;;5091556;28;20020;-67
2023/04/30 12:28:29;;;;;;;3.33;3.10;;;;;;;;;;5091559;28;20099;-66
2023/04/30 12:30:55;;;;;;;3.85;3.45;;;;;;;;;;5091867;28;20027;-67
2023/04/30 12:33:21;;;;;;;3.60;3.30;;;;;;;;;;5091818;28;20089;-66
2023/04/30 12:35:46;;;;;;;5.00;3.38;;;;;;;;;;5092315;28;20017;-66
2023/04/30 12:38:16;;;;;;;3.90;3.50;;;;;;;;;;5092365;28;20036;-67
2023/04/30 12:40:47;;;;;;;4.80;3.33;;;;;;;;;;5092621;28;20021;-67
2023/04/30 12:43:15;;;;;;;3.80;3.47;;;;;;;;;;5092019;28;20098;-67
2023/04/30 12:45:53;;;;;;;3.85;3.55;;;;;;;;;;5091532;28;20063;-68
2023/04/30 12:48:23;;;;;;;3.60;3.30;;;;;;;;;;5091749;28;20383;-67
2023/04/30 12:50:58;;;;;;;3.75;3.45;;;;;;;;;;5089197;28;20345;-67
2023/04/30 12:53:24;;;;;;;3.70;3.40;;;;;;;;;;5091186;28;20039;-67
2023/04/30 12:56:14;;;;;;;3.47;3.17;;;;;;;;;;5094025;28;20239;-67
2023/04/30 12:58:41;;;;;;;3.65;3.35;;;;;;;;;;5091073;28;20026;-67
2023/04/30 13:01:12;;;;;;;4.18;3.40;;;;;;;;;;5093468;28;20031;-67
2023/04/30 13:03:38;;;;;;;4.15;3.40;;;;;;;;;;5090845;28;20507;-66
2023/04/30 13:06:05;;;;;;;5.80;3.20;;;;;;;;;;5093463;28;20039;-67
2023/04/30 13:08:31;;;;;;;3.83;3.33;;;;;;;;;;5093692;28;20055;-68
2023/04/30 13:10:57;;;;;;;3.50;3.20;;;;;;;;;;5096165;28;20062;-66
2023/04/30 13:13:22;;;;;;;3.60;3.30;;;;;;;;;;5095109;28;20024;-65
2023/04/30 13:15:48;;;;;;;4.65;3.45;;;;;;;;;;5096018;28;20020;-66
2023/04/30 13:18:16;;;;;;;3.85;3.47;;;;;;;;;;5096033;28;20051;-66
2023/04/30 13:20:43;;;;;;;3.63;3.30;;;;;;;;;;5095318;28;20374;-67
2023/04/30 13:23:10;;;;;;;3.83;3.53;;;;;;;;;;5095541;28;20026;-66
2023/04/30 13:25:37;;;;;;;3.83;3.53;;;;;;;;;;5093167;28;20032;-65
2023/04/30 13:28:03;;;;;;;3.80;3.50;;;;;;;;;;5096135;28;20032;-66
2023/04/30 13:30:28;;;;;;;4.30;3.55;;;;;;;;;;5095796;28;20100;-66
2023/04/30 13:32:54;;;;;;;3.38;3.08;;;;;;;;;;5096214;28;20024;-66
2023/04/30 13:35:20;;;;;;;3.58;3.28;;;;;;;;;;5095836;28;20050;-65
2023/04/30 13:37:52;;;;;;;3.67;3.33;;;;;;;;;;5094948;28;20047;-66
2023/04/30 13:40:18;;;;;;;3.50;3.20;;;;;;;;;;5092684;28;20071;-66
2023/04/30 13:42:45;;;;;;;3.95;3.50;;;;;;;;;;5095500;28;20028;-66
2023/04/30 13:45:11;;;;;;;3.80;3.40;;;;;;;;;;5095049;28;20024;-66
2023/04/30 13:47:37;;;;;;;3.50;3.20;;;;;;;;;;5095365;28;20548;-65
2023/04/30 13:50:03;;;;;;;3.55;3.25;;;;;;;;;;5095731;28;20024;-66
2023/04/30 13:52:29;;;;;;;3.53;3.30;;;;;;;;;;5095641;28;20024;-66
2023/04/30 13:54:56;;;;;;;3.90;3.60;;;;;;;;;;5095362;28;20043;-66
2023/04/30 13:57:22;;;;;;;4.07;3.67;;;;;;;;;;5095264;28;20043;-66
2023/04/30 13:59:49;;;;;;;4.55;3.50;;;;;;;;;;5094998;28;20024;-66
2023/04/30 14:02:14;;;;;;;4.07;3.30;;;;;;;;;;5095295;28;20050;-66
2023/04/30 14:04:40;;;;;;;3.42;3.13;;;;;;;;;;5094233;28;20024;-66
2023/04/30 14:07:06;;;;;;;3.50;3.20;;;;;;;;;;5095144;28;20050;-66
2023/04/30 14:09:31;;;;;;;3.70;3.40;;;;;;;;;;5094235;28;20032;-66
2023/04/30 14:11:57;;;;;;;6.80;3.15;;;;;;;;;;5095204;28;20016;-66
2023/04/30 14:14:26;;;;;;;3.55;3.22;;;;;;;;;;5095324;28;20020;-66
2023/04/30 14:16:52;;;;;;;3.35;3.05;;;;;;;;;;5094814;28;20375;-67
2023/04/30 14:19:18;;;;;;;4.38;3.60;;;;;;;;;;5095007;28;20032;-65
2023/04/30 14:21:44;;;;;;;3.60;3.30;;;;;;;;;;5094875;28;20024;-67
2023/04/30 14:24:11;;;;;;;3.38;3.08;;;;;;;;;;5094791;28;20035;-67
2023/04/30 14:26:38;;;;;;;3.70;3.40;;;;;;;;;;5094761;28;20484;-66
2023/04/30 14:29:03;;;;;;;3.65;3.33;;;;;;;;;;5095066;28;20036;-68
2023/04/30 14:31:29;;;;;;;3.50;3.20;;;;;;;;;;5094888;28;20379;-67
2023/04/30 14:33:54;;;;;;;3.60;3.30;;;;;;;;;;5094608;28;20070;-67
2023/04/30 14:36:20;;;;;;;3.65;3.28;;;;;;;;;;5094346;28;20052;-66
2023/04/30 14:38:45;;;;;;;3.72;3.33;;;;;;;;;;5094338;28;20027;-66
2023/04/30 14:41:12;;;;;;;3.50;3.20;;;;;;;;;;5094379;28;20036;-66
2023/04/30 14:43:37;;;;;;;3.08;2.85;;;;;;;;;;5094374;28;20024;-66
2023/04/30 14:46:03;;;;;;;3.10;2.90;;;;;;;;;;5093849;28;20471;-65